sensor_id;sensor_type;location;lat;lon;timestamp;P1;durP1;ratioP1;P2;durP2;ratioP2
5225;SDS011;2632;51.666;7.146;2023-06-26T00:01:34;12.60;;;9.30;;
5225;SDS011;2632;51.666;7.146;2023-06-26T00:04:01;13.30;;;9.47;;
5225;SDS011;2632;51.666;7.146;2023-06-26T00:06:28;12.37;;;9.37;;
5225;SDS011;2632;51.666;7.146;2023-06-26T00:08:55;15.43;;;9.90;;
5225;SDS011;2632;51.666;7.146;2023-06-26T00:11:22;13.63;;;9.20;;
5225;SDS011;2632;51.666;7.146;2023-06-26T00:13:49;10.27;;;9.13;;
5225;SDS011;2632;51.666;7.146;2023-06-26T00:16:16;11.47;;;9.23;;
5225;SDS011;2632;51.666;7.146;2023-06-26T00:18:43;12.03;;;9.13;;
5225;SDS011;2632;51.666;7.146;2023-06-26T00:21:10;12.73;;;10.43;;
5225;SDS011;2632;51.666;7.146;2023-06-26T00:23:36;12.57;;;9.00;;
5225;SDS011;2632;51.666;7.146;2023-06-26T00:26:05;10.57;;;9.00;;
5225;SDS011;2632;51.666;7.146;2023-06-26T00:28:33;12.00;;;9.47;;
5225;SDS011;2632;51.666;7.146;2023-06-26T00:30:59;16.30;;;9.57;;
5225;SDS011;2632;51.666;7.146;2023-06-26T00:33:26;11.90;;;9.07;;
5225;SDS011;2632;51.666;7.146;2023-06-26T00:35:53;10.97;;;8.73;;
5225;SDS011;2632;51.666;7.146;2023-06-26T00:38:19;15.33;;;9.60;;
5225;SDS011;2632;51.666;7.146;2023-06-26T00:40:47;11.40;;;9.73;;
5225;SDS011;2632;51.666;7.146;2023-06-26T00:43:13;11.30;;;9.20;;
5225;SDS011;2632;51.666;7.146;2023-06-26T00:45:40;13.20;;;9.87;;
5225;SDS011;2632;51.666;7.146;2023-06-26T00:48:09;13.30;;;10.57;;
5225;SDS011;2632;51.666;7.146;2023-06-26T00:50:41;12.60;;;9.77;;
5225;SDS011;2632;51.666;7.146;2023-06-26T00:53:09;10.97;;;9.03;;
5225;SDS011;2632;51.666;7.146;2023-06-26T00:55:36;11.70;;;9.90;;
5225;SDS011;2632;51.666;7.146;2023-06-26T00:58:03;14.10;;;9.87;;
5225;SDS011;2632;51.666;7.146;2023-06-26T01:00:30;14.37;;;10.57;;
5225;SDS011;2632;51.666;7.146;2023-06-26T01:02:57;12.57;;;9.90;;
5225;SDS011;2632;51.666;7.146;2023-06-26T01:05:26;11.70;;;9.23;;
5225;SDS011;2632;51.666;7.146;2023-06-26T01:07:54;11.70;;;9.73;;
5225;SDS011;2632;51.666;7.146;2023-06-26T01:10:22;14.47;;;10.40;;
5225;SDS011;2632;51.666;7.146;2023-06-26T01:12:49;15.17;;;10.80;;
5225;SDS011;2632;51.666;7.146;2023-06-26T01:15:16;11.70;;;9.17;;
5225;SDS011;2632;51.666;7.146;2023-06-26T01:17:43;14.07;;;10.00;;
5225;SDS011;2632;51.666;7.146;2023-06-26T01:20:11;12.70;;;10.13;;
5225;SDS011;2632;51.666;7.146;2023-06-26T01:22:45;13.93;;;10.80;;
5225;SDS011;2632;51.666;7.146;2023-06-26T01:28:09;14.93;;;10.03;;
5225;SDS011;2632;51.666;7.146;2023-06-26T01:30:39;12.20;;;10.13;;
5225;SDS011;2632;51.666;7.146;2023-06-26T01:33:09;11.60;;;9.80;;
5225;SDS011;2632;51.666;7.146;2023-06-26T01:35:36;13.67;;;9.93;;
5225;SDS011;2632;51.666;7.146;2023-06-26T01:40:40;16.03;;;10.20;;
5225;SDS011;2632;51.666;7.146;2023-06-26T01:43:08;14.20;;;9.50;;
5225;SDS011;2632;51.666;7.146;2023-06-26T01:45:44;11.73;;;10.23;;
5225;SDS011;2632;51.666;7.146;2023-06-26T01:48:14;12.07;;;9.10;;
5225;SDS011;2632;51.666;7.146;2023-06-26T01:50:46;13.40;;;9.77;;
5225;SDS011;2632;51.666;7.146;2023-06-26T01:53:16;15.00;;;9.60;;
5225;SDS011;2632;51.666;7.146;2023-06-26T01:55:55;15.03;;;11.03;;
5225;SDS011;2632;51.666;7.146;2023-06-26T01:58:27;11.50;;;9.53;;
5225;SDS011;2632;51.666;7.146;2023-06-26T02:00:55;13.20;;;9.83;;
5225;SDS011;2632;51.666;7.146;2023-06-26T02:03:22;12.90;;;9.57;;
5225;SDS011;2632;51.666;7.146;2023-06-26T02:05:50;12.43;;;9.73;;
5225;SDS011;2632;51.666;7.146;2023-06-26T02:08:17;19.43;;;10.10;;
5225;SDS011;2632;51.666;7.146;2023-06-26T02:10:44;13.77;;;10.47;;
5225;SDS011;2632;51.666;7.146;2023-06-26T02:13:11;11.53;;;9.50;;
5225;SDS011;2632;51.666;7.146;2023-06-26T02:15:39;12.77;;;9.80;;
5225;SDS011;2632;51.666;7.146;2023-06-26T02:18:05;15.60;;;9.70;;
5225;SDS011;2632;51.666;7.146;2023-06-26T02:20:32;13.57;;;10.20;;
5225;SDS011;2632;51.666;7.146;2023-06-26T02:22:59;12.27;;;9.57;;
5225;SDS011;2632;51.666;7.146;2023-06-26T02:25:27;13.17;;;9.97;;
5225;SDS011;2632;51.666;7.146;2023-06-26T02:27:53;19.00;;;9.97;;
5225;SDS011;2632;51.666;7.146;2023-06-26T02:30:21;14.70;;;9.80;;
5225;SDS011;2632;51.666;7.146;2023-06-26T02:32:48;13.93;;;9.70;;
5225;SDS011;2632;51.666;7.146;2023-06-26T02:35:14;11.30;;;9.10;;
5225;SDS011;2632;51.666;7.146;2023-06-26T02:37:41;14.27;;;10.20;;
5225;SDS011;2632;51.666;7.146;2023-06-26T02:40:08;11.30;;;9.27;;
5225;SDS011;2632;51.666;7.146;2023-06-26T02:42:36;13.13;;;9.80;;
5225;SDS011;2632;51.666;7.146;2023-06-26T02:45:03;10.80;;;9.47;;
5225;SDS011;2632;51.666;7.146;2023-06-26T02:47:30;10.83;;;9.33;;
5225;SDS011;2632;51.666;7.146;2023-06-26T02:49:57;14.53;;;10.33;;
5225;SDS011;2632;51.666;7.146;2023-06-26T02:52:23;15.60;;;10.97;;
5225;SDS011;2632;51.666;7.146;2023-06-26T02:54:50;12.50;;;9.50;;
5225;SDS011;2632;51.666;7.146;2023-06-26T02:57:17;11.33;;;8.90;;
5225;SDS011;2632;51.666;7.146;2023-06-26T02:59:43;20.10;;;9.03;;
5225;SDS011;2632;51.666;7.146;2023-06-26T03:02:10;15.17;;;10.70;;
5225;SDS011;2632;51.666;7.146;2023-06-26T03:04:37;11.77;;;8.90;;
5225;SDS011;2632;51.666;7.146;2023-06-26T03:07:04;14.27;;;9.63;;
5225;SDS011;2632;51.666;7.146;2023-06-26T03:09:30;14.03;;;9.03;;
5225;SDS011;2632;51.666;7.146;2023-06-26T03:11:57;13.87;;;9.43;;
5225;SDS011;2632;51.666;7.146;2023-06-26T03:14:24;13.10;;;9.17;;
5225;SDS011;2632;51.666;7.146;2023-06-26T03:16:50;12.30;;;9.30;;
5225;SDS011;2632;51.666;7.146;2023-06-26T03:19:19;14.77;;;9.40;;
5225;SDS011;2632;51.666;7.146;2023-06-26T03:21:45;15.83;;;9.27;;
5225;SDS011;2632;51.666;7.146;2023-06-26T03:24:12;13.10;;;9.57;;
5225;SDS011;2632;51.666;7.146;2023-06-26T03:26:39;13.73;;;8.60;;
5225;SDS011;2632;51.666;7.146;2023-06-26T03:29:05;15.80;;;9.33;;
5225;SDS011;2632;51.666;7.146;2023-06-26T03:31:32;12.40;;;8.70;;
5225;SDS011;2632;51.666;7.146;2023-06-26T03:33:59;12.80;;;8.17;;
5225;SDS011;2632;51.666;7.146;2023-06-26T03:36:25;8.90;;;7.37;;
5225;SDS011;2632;51.666;7.146;2023-06-26T03:38:52;10.63;;;6.63;;
5225;SDS011;2632;51.666;7.146;2023-06-26T03:41:23;10.13;;;7.40;;
5225;SDS011;2632;51.666;7.146;2023-06-26T03:43:50;8.23;;;6.53;;
5225;SDS011;2632;51.666;7.146;2023-06-26T03:46:16;10.70;;;7.10;;
5225;SDS011;2632;51.666;7.146;2023-06-26T03:48:43;9.90;;;6.83;;
5225;SDS011;2632;51.666;7.146;2023-06-26T03:51:10;10.20;;;6.80;;
5225;SDS011;2632;51.666;7.146;2023-06-26T03:53:36;9.37;;;7.17;;
5225;SDS011;2632;51.666;7.146;2023-06-26T03:56:03;8.67;;;7.13;;
5225;SDS011;2632;51.666;7.146;2023-06-26T03:58:30;11.83;;;8.00;;
5225;SDS011;2632;51.666;7.146;2023-06-26T04:00:56;12.80;;;7.97;;
5225;SDS011;2632;51.666;7.146;2023-06-26T04:03:24;11.53;;;7.13;;
5225;SDS011;2632;51.666;7.146;2023-06-26T04:05:50;10.07;;;8.07;;
5225;SDS011;2632;51.666;7.146;2023-06-26T04:08:17;9.13;;;7.23;;
5225;SDS011;2632;51.666;7.146;2023-06-26T04:10:45;11.90;;;7.67;;
5225;SDS011;2632;51.666;7.146;2023-06-26T04:13:13;9.20;;;7.60;;
5225;SDS011;2632;51.666;7.146;2023-06-26T04:15:40;9.37;;;7.53;;
5225;SDS011;2632;51.666;7.146;2023-06-26T04:18:07;10.30;;;8.30;;
5225;SDS011;2632;51.666;7.146;2023-06-26T04:20:38;9.67;;;8.33;;
5225;SDS011;2632;51.666;7.146;2023-06-26T04:23:06;11.00;;;8.23;;
5225;SDS011;2632;51.666;7.146;2023-06-26T04:25:33;10.77;;;8.10;;
5225;SDS011;2632;51.666;7.146;2023-06-26T04:27:59;12.43;;;9.30;;
5225;SDS011;2632;51.666;7.146;2023-06-26T04:30:26;11.40;;;8.53;;
5225;SDS011;2632;51.666;7.146;2023-06-26T04:32:52;13.63;;;9.10;;
5225;SDS011;2632;51.666;7.146;2023-06-26T04:35:19;12.87;;;9.10;;
5225;SDS011;2632;51.666;7.146;2023-06-26T04:37:47;12.33;;;9.30;;
5225;SDS011;2632;51.666;7.146;2023-06-26T04:40:13;12.07;;;9.53;;
5225;SDS011;2632;51.666;7.146;2023-06-26T04:42:40;12.13;;;9.60;;
5225;SDS011;2632;51.666;7.146;2023-06-26T04:45:07;14.87;;;10.10;;
5225;SDS011;2632;51.666;7.146;2023-06-26T04:47:34;12.70;;;10.43;;
5225;SDS011;2632;51.666;7.146;2023-06-26T04:50:00;14.67;;;9.90;;
5225;SDS011;2632;51.666;7.146;2023-06-26T04:52:27;14.30;;;9.77;;
5225;SDS011;2632;51.666;7.146;2023-06-26T04:54:53;15.03;;;10.07;;
5225;SDS011;2632;51.666;7.146;2023-06-26T04:57:20;11.00;;;9.40;;
5225;SDS011;2632;51.666;7.146;2023-06-26T04:59:47;12.70;;;9.67;;
5225;SDS011;2632;51.666;7.146;2023-06-26T05:02:13;14.33;;;9.73;;
5225;SDS011;2632;51.666;7.146;2023-06-26T05:04:41;14.33;;;9.53;;
5225;SDS011;2632;51.666;7.146;2023-06-26T05:07:08;17.67;;;9.70;;
5225;SDS011;2632;51.666;7.146;2023-06-26T05:09:35;13.00;;;8.70;;
5225;SDS011;2632;51.666;7.146;2023-06-26T05:12:02;16.53;;;9.00;;
5225;SDS011;2632;51.666;7.146;2023-06-26T05:14:29;17.43;;;9.27;;
5225;SDS011;2632;51.666;7.146;2023-06-26T05:16:55;10.83;;;8.57;;
5225;SDS011;2632;51.666;7.146;2023-06-26T05:19:22;13.43;;;9.17;;
5225;SDS011;2632;51.666;7.146;2023-06-26T05:21:49;11.57;;;7.33;;
5225;SDS011;2632;51.666;7.146;2023-06-26T05:24:17;10.77;;;7.97;;
5225;SDS011;2632;51.666;7.146;2023-06-26T05:26:47;11.70;;;8.57;;
5225;SDS011;2632;51.666;7.146;2023-06-26T05:29:14;10.87;;;7.47;;
5225;SDS011;2632;51.666;7.146;2023-06-26T05:31:41;11.37;;;7.70;;
5225;SDS011;2632;51.666;7.146;2023-06-26T05:34:10;11.60;;;8.03;;
5225;SDS011;2632;51.666;7.146;2023-06-26T05:36:37;11.50;;;7.60;;
5225;SDS011;2632;51.666;7.146;2023-06-26T05:39:05;11.30;;;7.50;;
5225;SDS011;2632;51.666;7.146;2023-06-26T05:41:32;10.67;;;7.47;;
5225;SDS011;2632;51.666;7.146;2023-06-26T05:43:59;13.93;;;7.20;;
5225;SDS011;2632;51.666;7.146;2023-06-26T05:46:26;11.50;;;7.27;;
5225;SDS011;2632;51.666;7.146;2023-06-26T05:48:53;12.47;;;7.30;;
5225;SDS011;2632;51.666;7.146;2023-06-26T05:51:20;15.90;;;7.20;;
5225;SDS011;2632;51.666;7.146;2023-06-26T05:53:47;11.20;;;7.10;;
5225;SDS011;2632;51.666;7.146;2023-06-26T05:56:14;11.20;;;6.53;;
5225;SDS011;2632;51.666;7.146;2023-06-26T05:58:41;11.17;;;6.20;;
5225;SDS011;2632;51.666;7.146;2023-06-26T06:01:09;13.80;;;6.70;;
5225;SDS011;2632;51.666;7.146;2023-06-26T06:03:36;9.50;;;6.07;;
5225;SDS011;2632;51.666;7.146;2023-06-26T06:06:03;13.70;;;6.80;;
5225;SDS011;2632;51.666;7.146;2023-06-26T06:08:30;13.07;;;6.10;;
5225;SDS011;2632;51.666;7.146;2023-06-26T06:10:57;12.23;;;6.13;;
5225;SDS011;2632;51.666;7.146;2023-06-26T06:13:25;11.60;;;5.60;;
5225;SDS011;2632;51.666;7.146;2023-06-26T06:15:52;12.27;;;5.90;;
5225;SDS011;2632;51.666;7.146;2023-06-26T06:18:19;7.77;;;5.43;;
5225;SDS011;2632;51.666;7.146;2023-06-26T06:20:45;8.83;;;5.83;;
5225;SDS011;2632;51.666;7.146;2023-06-26T06:23:12;7.30;;;5.57;;
5225;SDS011;2632;51.666;7.146;2023-06-26T06:25:39;12.37;;;5.73;;
5225;SDS011;2632;51.666;7.146;2023-06-26T06:28:05;9.53;;;5.47;;
5225;SDS011;2632;51.666;7.146;2023-06-26T06:30:32;12.03;;;5.87;;
5225;SDS011;2632;51.666;7.146;2023-06-26T06:33:02;8.73;;;5.27;;
5225;SDS011;2632;51.666;7.146;2023-06-26T06:35:29;12.20;;;5.43;;
5225;SDS011;2632;51.666;7.146;2023-06-26T06:37:56;10.23;;;6.07;;
5225;SDS011;2632;51.666;7.146;2023-06-26T06:40:22;7.43;;;5.00;;
5225;SDS011;2632;51.666;7.146;2023-06-26T06:42:50;8.83;;;5.30;;
5225;SDS011;2632;51.666;7.146;2023-06-26T06:45:17;9.70;;;5.23;;
5225;SDS011;2632;51.666;7.146;2023-06-26T06:47:44;10.07;;;5.27;;
5225;SDS011;2632;51.666;7.146;2023-06-26T06:50:10;10.23;;;5.47;;
5225;SDS011;2632;51.666;7.146;2023-06-26T06:52:37;10.30;;;5.53;;
5225;SDS011;2632;51.666;7.146;2023-06-26T06:55:06;10.60;;;5.50;;
5225;SDS011;2632;51.666;7.146;2023-06-26T06:57:37;11.27;;;4.93;;
5225;SDS011;2632;51.666;7.146;2023-06-26T07:00:05;7.50;;;5.10;;
5225;SDS011;2632;51.666;7.146;2023-06-26T07:02:37;11.80;;;5.73;;
5225;SDS011;2632;51.666;7.146;2023-06-26T07:05:05;11.77;;;5.10;;
5225;SDS011;2632;51.666;7.146;2023-06-26T07:07:33;11.90;;;5.70;;
5225;SDS011;2632;51.666;7.146;2023-06-26T07:10:02;10.50;;;5.87;;
5225;SDS011;2632;51.666;7.146;2023-06-26T07:12:30;9.60;;;4.70;;
5225;SDS011;2632;51.666;7.146;2023-06-26T07:14:57;9.67;;;5.47;;
5225;SDS011;2632;51.666;7.146;2023-06-26T07:17:24;13.97;;;6.47;;
5225;SDS011;2632;51.666;7.146;2023-06-26T07:19:50;8.63;;;4.80;;
5225;SDS011;2632;51.666;7.146;2023-06-26T07:22:17;12.90;;;6.50;;
5225;SDS011;2632;51.666;7.146;2023-06-26T07:24:46;13.27;;;6.23;;
5225;SDS011;2632;51.666;7.146;2023-06-26T07:27:14;12.60;;;5.63;;
5225;SDS011;2632;51.666;7.146;2023-06-26T07:29:42;14.53;;;6.00;;
5225;SDS011;2632;51.666;7.146;2023-06-26T07:32:09;10.47;;;5.40;;
5225;SDS011;2632;51.666;7.146;2023-06-26T07:34:37;12.87;;;6.03;;
5225;SDS011;2632;51.666;7.146;2023-06-26T07:37:04;21.17;;;6.13;;
5225;SDS011;2632;51.666;7.146;2023-06-26T07:39:30;14.23;;;7.73;;
5225;SDS011;2632;51.666;7.146;2023-06-26T07:41:57;26.03;;;7.00;;
5225;SDS011;2632;51.666;7.146;2023-06-26T07:44:25;47.53;;;10.77;;
5225;SDS011;2632;51.666;7.146;2023-06-26T07:46:52;14.27;;;5.87;;
5225;SDS011;2632;51.666;7.146;2023-06-26T07:49:19;9.97;;;5.30;;
5225;SDS011;2632;51.666;7.146;2023-06-26T07:51:45;11.27;;;6.23;;
5225;SDS011;2632;51.666;7.146;2023-06-26T07:54:12;11.83;;;5.47;;
5225;SDS011;2632;51.666;7.146;2023-06-26T07:57:12;11.57;;;5.10;;
5225;SDS011;2632;51.666;7.146;2023-06-26T07:59:35;12.20;;;5.47;;
5225;SDS011;2632;51.666;7.146;2023-06-26T08:02:02;17.13;;;6.50;;
5225;SDS011;2632;51.666;7.146;2023-06-26T08:04:29;14.00;;;5.20;;
5225;SDS011;2632;51.666;7.146;2023-06-26T08:06:58;8.70;;;4.50;;
5225;SDS011;2632;51.666;7.146;2023-06-26T08:09:27;13.80;;;5.63;;
5225;SDS011;2632;51.666;7.146;2023-06-26T08:11:55;14.50;;;4.83;;
5225;SDS011;2632;51.666;7.146;2023-06-26T08:14:22;11.90;;;4.70;;
5225;SDS011;2632;51.666;7.146;2023-06-26T08:16:50;8.47;;;4.83;;
5225;SDS011;2632;51.666;7.146;2023-06-26T08:19:17;9.10;;;5.57;;
5225;SDS011;2632;51.666;7.146;2023-06-26T08:21:45;12.83;;;4.70;;
5225;SDS011;2632;51.666;7.146;2023-06-26T08:24:12;11.80;;;4.43;;
5225;SDS011;2632;51.666;7.146;2023-06-26T08:26:42;6.43;;;4.43;;
5225;SDS011;2632;51.666;7.146;2023-06-26T08:29:08;10.20;;;5.10;;
5225;SDS011;2632;51.666;7.146;2023-06-26T08:31:38;10.30;;;5.20;;
5225;SDS011;2632;51.666;7.146;2023-06-26T08:34:05;11.50;;;5.50;;
5225;SDS011;2632;51.666;7.146;2023-06-26T08:36:33;19.80;;;5.40;;
5225;SDS011;2632;51.666;7.146;2023-06-26T08:39:00;11.50;;;4.13;;
5225;SDS011;2632;51.666;7.146;2023-06-26T08:41:27;13.93;;;5.37;;
5225;SDS011;2632;51.666;7.146;2023-06-26T08:43:53;9.07;;;5.33;;
5225;SDS011;2632;51.666;7.146;2023-06-26T08:46:20;11.07;;;5.07;;
5225;SDS011;2632;51.666;7.146;2023-06-26T08:48:57;12.33;;;3.93;;
5225;SDS011;2632;51.666;7.146;2023-06-26T08:51:59;10.10;;;4.60;;
5225;SDS011;2632;51.666;7.146;2023-06-26T08:54:34;16.70;;;4.57;;
5225;SDS011;2632;51.666;7.146;2023-06-26T08:57:04;10.87;;;3.57;;
5225;SDS011;2632;51.666;7.146;2023-06-26T08:59:33;5.17;;;3.43;;
5225;SDS011;2632;51.666;7.146;2023-06-26T09:02:00;10.27;;;4.10;;
5225;SDS011;2632;51.666;7.146;2023-06-26T09:04:27;9.70;;;3.73;;
5225;SDS011;2632;51.666;7.146;2023-06-26T09:06:54;8.67;;;3.30;;
5225;SDS011;2632;51.666;7.146;2023-06-26T09:09:21;9.47;;;3.37;;
5225;SDS011;2632;51.666;7.146;2023-06-26T09:11:47;8.03;;;3.47;;
5225;SDS011;2632;51.666;7.146;2023-06-26T09:14:14;10.00;;;3.60;;
5225;SDS011;2632;51.666;7.146;2023-06-26T09:16:41;12.27;;;3.60;;
5225;SDS011;2632;51.666;7.146;2023-06-26T09:19:09;7.10;;;3.17;;
5225;SDS011;2632;51.666;7.146;2023-06-26T09:21:41;11.17;;;4.10;;
5225;SDS011;2632;51.666;7.146;2023-06-26T09:24:09;7.70;;;3.50;;
5225;SDS011;2632;51.666;7.146;2023-06-26T09:26:39;15.10;;;4.10;;
5225;SDS011;2632;51.666;7.146;2023-06-26T09:29:07;11.33;;;3.87;;
5225;SDS011;2632;51.666;7.146;2023-06-26T09:31:37;6.50;;;3.80;;
5225;SDS011;2632;51.666;7.146;2023-06-26T09:34:08;8.50;;;3.43;;
5225;SDS011;2632;51.666;7.146;2023-06-26T09:36:35;4.97;;;3.53;;
5225;SDS011;2632;51.666;7.146;2023-06-26T09:39:06;6.50;;;3.00;;
5225;SDS011;2632;51.666;7.146;2023-06-26T09:41:38;7.10;;;3.27;;
5225;SDS011;2632;51.666;7.146;2023-06-26T09:44:07;5.27;;;3.10;;
5225;SDS011;2632;51.666;7.146;2023-06-26T09:46:38;7.17;;;2.83;;
5225;SDS011;2632;51.666;7.146;2023-06-26T09:49:09;6.20;;;3.30;;
5225;SDS011;2632;51.666;7.146;2023-06-26T09:51:37;8.33;;;2.90;;
5225;SDS011;2632;51.666;7.146;2023-06-26T09:54:05;11.07;;;3.90;;
5225;SDS011;2632;51.666;7.146;2023-06-26T09:56:33;9.50;;;3.47;;
5225;SDS011;2632;51.666;7.146;2023-06-26T09:59:03;7.60;;;3.23;;
5225;SDS011;2632;51.666;7.146;2023-06-26T10:01:31;4.63;;;2.90;;
5225;SDS011;2632;51.666;7.146;2023-06-26T10:03:59;5.20;;;2.83;;
5225;SDS011;2632;51.666;7.146;2023-06-26T10:06:35;5.07;;;3.00;;
5225;SDS011;2632;51.666;7.146;2023-06-26T10:09:07;7.20;;;2.93;;
5225;SDS011;2632;51.666;7.146;2023-06-26T10:11:41;7.07;;;3.00;;
5225;SDS011;2632;51.666;7.146;2023-06-26T10:14:21;6.90;;;3.13;;
5225;SDS011;2632;51.666;7.146;2023-06-26T10:16:52;5.30;;;2.70;;
5225;SDS011;2632;51.666;7.146;2023-06-26T10:19:21;3.47;;;3.10;;
5225;SDS011;2632;51.666;7.146;2023-06-26T10:21:52;3.80;;;3.10;;
5225;SDS011;2632;51.666;7.146;2023-06-26T10:24:20;4.70;;;3.00;;
5225;SDS011;2632;51.666;7.146;2023-06-26T10:26:50;6.33;;;2.87;;
5225;SDS011;2632;51.666;7.146;2023-06-26T10:29:21;3.70;;;2.57;;
5225;SDS011;2632;51.666;7.146;2023-06-26T10:31:52;6.60;;;2.50;;
5225;SDS011;2632;51.666;7.146;2023-06-26T10:34:23;4.30;;;2.70;;
5225;SDS011;2632;51.666;7.146;2023-06-26T10:37:00;8.23;;;3.17;;
5225;SDS011;2632;51.666;7.146;2023-06-26T10:39:28;5.23;;;2.60;;
5225;SDS011;2632;51.666;7.146;2023-06-26T10:42:13;5.10;;;3.27;;
5225;SDS011;2632;51.666;7.146;2023-06-26T10:44:41;8.77;;;3.10;;
5225;SDS011;2632;51.666;7.146;2023-06-26T10:47:09;6.80;;;3.20;;
5225;SDS011;2632;51.666;7.146;2023-06-26T10:49:37;4.97;;;3.40;;
5225;SDS011;2632;51.666;7.146;2023-06-26T10:52:08;5.50;;;3.10;;
5225;SDS011;2632;51.666;7.146;2023-06-26T10:54:35;4.93;;;3.40;;
5225;SDS011;2632;51.666;7.146;2023-06-26T10:57:03;5.33;;;3.23;;
5225;SDS011;2632;51.666;7.146;2023-06-26T10:59:33;5.97;;;3.10;;
5225;SDS011;2632;51.666;7.146;2023-06-26T11:02:01;4.00;;;2.93;;
5225;SDS011;2632;51.666;7.146;2023-06-26T11:04:37;4.60;;;2.80;;
5225;SDS011;2632;51.666;7.146;2023-06-26T11:07:23;4.77;;;3.23;;
5225;SDS011;2632;51.666;7.146;2023-06-26T11:12:49;4.47;;;3.30;;
5225;SDS011;2632;51.666;7.146;2023-06-26T11:15:17;4.50;;;2.60;;
5225;SDS011;2632;51.666;7.146;2023-06-26T11:17:45;4.77;;;3.50;;
5225;SDS011;2632;51.666;7.146;2023-06-26T11:20:14;6.27;;;2.60;;
5225;SDS011;2632;51.666;7.146;2023-06-26T11:22:44;3.83;;;2.53;;
5225;SDS011;2632;51.666;7.146;2023-06-26T11:25:11;5.30;;;2.87;;
5225;SDS011;2632;51.666;7.146;2023-06-26T11:30:05;4.10;;;2.60;;
5225;SDS011;2632;51.666;7.146;2023-06-26T11:32:32;4.30;;;2.33;;
5225;SDS011;2632;51.666;7.146;2023-06-26T11:34:59;3.70;;;2.57;;
5225;SDS011;2632;51.666;7.146;2023-06-26T11:37:26;3.47;;;2.30;;
5225;SDS011;2632;51.666;7.146;2023-06-26T11:39:53;2.90;;;2.20;;
5225;SDS011;2632;51.666;7.146;2023-06-26T11:42:19;3.27;;;2.13;;
5225;SDS011;2632;51.666;7.146;2023-06-26T11:44:46;1.80;;;1.70;;
5225;SDS011;2632;51.666;7.146;2023-06-26T11:47:17;3.30;;;1.97;;
5225;SDS011;2632;51.666;7.146;2023-06-26T11:49:45;7.13;;;2.33;;
5225;SDS011;2632;51.666;7.146;2023-06-26T11:52:13;4.27;;;1.77;;
5225;SDS011;2632;51.666;7.146;2023-06-26T11:54:41;8.47;;;2.50;;
5225;SDS011;2632;51.666;7.146;2023-06-26T11:57:13;9.40;;;2.20;;
5225;SDS011;2632;51.666;7.146;2023-06-26T11:59:40;4.13;;;2.07;;
5225;SDS011;2632;51.666;7.146;2023-06-26T12:02:08;5.17;;;2.07;;
5225;SDS011;2632;51.666;7.146;2023-06-26T12:04:36;2.10;;;1.90;;
5225;SDS011;2632;51.666;7.146;2023-06-26T12:07:05;3.37;;;1.90;;
5225;SDS011;2632;51.666;7.146;2023-06-26T12:09:42;3.13;;;1.80;;
5225;SDS011;2632;51.666;7.146;2023-06-26T12:12:10;1.80;;;1.70;;
5225;SDS011;2632;51.666;7.146;2023-06-26T12:14:38;2.80;;;1.13;;
5225;SDS011;2632;51.666;7.146;2023-06-26T12:17:10;4.77;;;1.37;;
5225;SDS011;2632;51.666;7.146;2023-06-26T12:19:38;2.73;;;1.27;;
5225;SDS011;2632;51.666;7.146;2023-06-26T12:22:06;1.30;;;1.10;;
5225;SDS011;2632;51.666;7.146;2023-06-26T12:24:33;1.63;;;1.30;;
5225;SDS011;2632;51.666;7.146;2023-06-26T12:27:07;1.93;;;0.97;;
5225;SDS011;2632;51.666;7.146;2023-06-26T12:29:49;2.37;;;1.20;;
5225;SDS011;2632;51.666;7.146;2023-06-26T12:32:23;1.40;;;0.87;;
5225;SDS011;2632;51.666;7.146;2023-06-26T12:34:51;2.40;;;0.90;;
5225;SDS011;2632;51.666;7.146;2023-06-26T12:37:19;1.63;;;1.20;;
5225;SDS011;2632;51.666;7.146;2023-06-26T12:39:49;1.33;;;1.20;;
5225;SDS011;2632;51.666;7.146;2023-06-26T12:42:17;1.97;;;1.13;;
5225;SDS011;2632;51.666;7.146;2023-06-26T12:44:45;5.10;;;1.17;;
5225;SDS011;2632;51.666;7.146;2023-06-26T12:47:13;2.70;;;1.40;;
5225;SDS011;2632;51.666;7.146;2023-06-26T12:49:44;6.57;;;2.43;;
5225;SDS011;2632;51.666;7.146;2023-06-26T12:52:15;5.00;;;1.30;;
5225;SDS011;2632;51.666;7.146;2023-06-26T12:54:43;3.17;;;1.70;;
5225;SDS011;2632;51.666;7.146;2023-06-26T12:57:10;2.93;;;1.40;;
5225;SDS011;2632;51.666;7.146;2023-06-26T12:59:37;3.20;;;1.90;;
5225;SDS011;2632;51.666;7.146;2023-06-26T13:02:04;1.43;;;1.33;;
5225;SDS011;2632;51.666;7.146;2023-06-26T13:04:32;4.30;;;1.50;;
5225;SDS011;2632;51.666;7.146;2023-06-26T13:06:59;2.63;;;1.57;;
5225;SDS011;2632;51.666;7.146;2023-06-26T13:09:26;2.27;;;1.80;;
5225;SDS011;2632;51.666;7.146;2023-06-26T13:11:52;6.97;;;1.70;;
5225;SDS011;2632;51.666;7.146;2023-06-26T13:14:19;7.43;;;1.90;;
5225;SDS011;2632;51.666;7.146;2023-06-26T13:16:46;5.13;;;1.73;;
5225;SDS011;2632;51.666;7.146;2023-06-26T13:19:14;4.97;;;1.53;;
5225;SDS011;2632;51.666;7.146;2023-06-26T13:21:41;2.47;;;1.90;;
5225;SDS011;2632;51.666;7.146;2023-06-26T13:24:08;4.50;;;1.37;;
5225;SDS011;2632;51.666;7.146;2023-06-26T13:26:35;2.87;;;1.40;;
5225;SDS011;2632;51.666;7.146;2023-06-26T13:29:03;2.10;;;1.90;;
5225;SDS011;2632;51.666;7.146;2023-06-26T13:31:31;6.00;;;1.40;;
5225;SDS011;2632;51.666;7.146;2023-06-26T13:33:59;1.67;;;1.50;;
5225;SDS011;2632;51.666;7.146;2023-06-26T13:36:26;5.60;;;1.40;;
5225;SDS011;2632;51.666;7.146;2023-06-26T13:38:53;2.50;;;1.60;;
5225;SDS011;2632;51.666;7.146;2023-06-26T13:41:23;4.50;;;1.30;;
5225;SDS011;2632;51.666;7.146;2023-06-26T13:43:51;3.27;;;1.60;;
5225;SDS011;2632;51.666;7.146;2023-06-26T13:46:18;7.60;;;1.57;;
5225;SDS011;2632;51.666;7.146;2023-06-26T13:48:45;5.40;;;1.40;;
5225;SDS011;2632;51.666;7.146;2023-06-26T13:51:12;2.70;;;1.50;;
5225;SDS011;2632;51.666;7.146;2023-06-26T13:53:39;3.40;;;1.33;;
5225;SDS011;2632;51.666;7.146;2023-06-26T13:56:06;2.50;;;1.53;;
5225;SDS011;2632;51.666;7.146;2023-06-26T13:58:34;2.90;;;1.60;;
5225;SDS011;2632;51.666;7.146;2023-06-26T14:01:02;2.07;;;1.20;;
5225;SDS011;2632;51.666;7.146;2023-06-26T14:03:30;2.50;;;1.37;;
5225;SDS011;2632;51.666;7.146;2023-06-26T14:05:57;3.40;;;1.20;;
5225;SDS011;2632;51.666;7.146;2023-06-26T14:08:24;3.90;;;1.33;;
5225;SDS011;2632;51.666;7.146;2023-06-26T14:10:50;1.87;;;1.50;;
5225;SDS011;2632;51.666;7.146;2023-06-26T14:13:17;1.73;;;1.20;;
5225;SDS011;2632;51.666;7.146;2023-06-26T14:15:48;2.73;;;1.30;;
5225;SDS011;2632;51.666;7.146;2023-06-26T14:18:19;3.27;;;1.40;;
5225;SDS011;2632;51.666;7.146;2023-06-26T14:20:47;2.63;;;1.10;;
5225;SDS011;2632;51.666;7.146;2023-06-26T14:23:14;3.70;;;1.30;;
5225;SDS011;2632;51.666;7.146;2023-06-26T14:25:41;1.97;;;0.90;;
5225;SDS011;2632;51.666;7.146;2023-06-26T14:28:07;2.10;;;1.10;;
5225;SDS011;2632;51.666;7.146;2023-06-26T14:30:34;3.63;;;1.53;;
5225;SDS011;2632;51.666;7.146;2023-06-26T14:33:01;4.13;;;1.30;;
5225;SDS011;2632;51.666;7.146;2023-06-26T14:35:27;3.77;;;1.40;;
5225;SDS011;2632;51.666;7.146;2023-06-26T14:37:54;1.43;;;1.20;;
5225;SDS011;2632;51.666;7.146;2023-06-26T14:40:21;5.63;;;1.70;;
5225;SDS011;2632;51.666;7.146;2023-06-26T14:42:48;8.93;;;2.53;;
5225;SDS011;2632;51.666;7.146;2023-06-26T14:45:15;1.50;;;1.17;;
5225;SDS011;2632;51.666;7.146;2023-06-26T14:47:42;3.47;;;1.17;;
5225;SDS011;2632;51.666;7.146;2023-06-26T14:50:09;2.13;;;1.10;;
5225;SDS011;2632;51.666;7.146;2023-06-26T14:52:36;3.07;;;1.30;;
5225;SDS011;2632;51.666;7.146;2023-06-26T14:55:02;2.60;;;1.20;;
5225;SDS011;2632;51.666;7.146;2023-06-26T14:57:33;1.73;;;1.30;;
5225;SDS011;2632;51.666;7.146;2023-06-26T15:00:00;1.20;;;1.00;;
5225;SDS011;2632;51.666;7.146;2023-06-26T15:02:26;4.10;;;1.20;;
5225;SDS011;2632;51.666;7.146;2023-06-26T15:04:53;1.23;;;1.13;;
5225;SDS011;2632;51.666;7.146;2023-06-26T15:07:20;4.23;;;1.50;;
5225;SDS011;2632;51.666;7.146;2023-06-26T15:09:47;3.77;;;1.00;;
5225;SDS011;2632;51.666;7.146;2023-06-26T15:12:14;2.20;;;1.43;;
5225;SDS011;2632;51.666;7.146;2023-06-26T15:14:40;2.60;;;1.20;;
5225;SDS011;2632;51.666;7.146;2023-06-26T15:17:07;2.90;;;1.33;;
5225;SDS011;2632;51.666;7.146;2023-06-26T15:19:34;1.30;;;1.17;;
5225;SDS011;2632;51.666;7.146;2023-06-26T15:22:01;3.00;;;1.60;;
5225;SDS011;2632;51.666;7.146;2023-06-26T15:24:29;5.70;;;1.47;;